Time;durP1;ratioP1;P1;durP2;ratioP2;P2;SDS_P1;SDS_P2;PMS_P1;PMS_P2;Temp;Humidity;BMP_temperature;BMP_pressure;BME280_temperature;BME280_humidity;BME280_pressure;Samples;Min_cycle;Max_cycle;Signal;HPM_P1;HPM_P2
2022/11/15 00:00:56;;;;;;;26.27;11.70;;;;;;;9.32;68.50;99756.78;6217713;23;20156;-86
2022/11/15 00:03:27;;;;;;;29.20;11.93;;;;;;;9.34;69.36;99761.06;6216132;23;20508;-86
2022/11/15 00:05:54;;;;;;;25.43;12.67;;;;;;;9.35;69.90;99748.81;6191101;23;20161;-86
2022/11/15 00:08:21;;;;;;;29.40;13.13;;;;;;;9.38;69.89;99753.94;6216504;23;20240;-86
2022/11/15 00:10:58;;;;;;;27.20;12.00;;;;;;;9.36;70.23;99745.28;6217988;23;20146;-86
2022/11/15 00:13:24;;;;;;;31.47;12.43;;;;;;;9.37;69.57;99752.22;6190965;23;20176;-86
2022/11/15 00:15:51;;;;;;;24.80;12.50;;;;;;;9.34;69.82;99755.81;6217901;23;20264;-86
2022/11/15 00:18:18;;;;;;;30.93;13.17;;;;;;;9.37;69.87;99752.22;6217251;23;20160;-86
2022/11/15 00:20:45;;;;;;;28.97;12.50;;;;;;;9.42;69.89;99751.16;6190927;23;20220;-86
2022/11/15 00:23:11;;;;;;;23.20;11.83;;;;;;;9.39;70.34;99747.78;6217266;23;20216;-86
2022/11/15 00:25:37;;;;;;;39.73;15.47;;;;;;;9.46;71.29;99747.50;6217180;23;20628;-86
2022/11/15 00:28:04;;;;;;;33.87;13.10;;;;;;;9.56;71.38;99745.41;6217142;23;20215;-86
2022/11/15 00:30:30;;;;;;;32.17;13.27;;;;;;;9.61;71.71;99736.47;6217471;23;20153;-86
2022/11/15 00:32:56;;;;;;;20.33;8.83;;;;;;;9.70;72.41;99740.44;6190848;23;20161;-86
2022/11/15 00:35:21;;;;;;;21.80;11.17;;;;;;;9.75;72.97;99738.50;6217438;23;20150;-86
2022/11/15 00:37:47;;;;;;;18.83;9.30;;;;;;;9.78;73.59;99734.00;6190575;23;20517;-86
2022/11/15 00:40:14;;;;;;;24.93;11.10;;;;;;;9.86;73.87;99733.69;6190754;23;20234;-85
2022/11/15 00:42:41;;;;;;;26.17;11.43;;;;;;;9.92;74.64;99730.00;6216990;23;20177;-86
2022/11/15 00:45:09;;;;;;;20.20;8.60;;;;;;;10.03;74.22;99722.56;6190673;23;20227;-86
2022/11/15 00:47:36;;;;;;;27.27;9.37;;;;;;;10.03;75.09;99722.56;6190705;23;20161;-86
2022/11/15 00:50:04;;;;;;;22.80;9.50;;;;;;;10.04;75.01;99719.84;6216913;23;20164;-86
2022/11/15 00:52:29;;;;;;;53.63;10.97;;;;;;;10.05;75.18;99716.34;6190554;23;20243;-86
2022/11/15 00:54:55;;;;;;;39.80;10.40;;;;;;;10.06;75.39;99718.06;6216755;23;20169;-86
2022/11/15 00:57:22;;;;;;;25.17;8.73;;;;;;;10.11;75.48;99718.72;6217077;23;20170;-86
2022/11/15 00:59:49;;;;;;;19.77;9.43;;;;;;;10.15;75.84;99714.22;6190598;23;20181;-86
2022/11/15 01:02:16;;;;;;;17.47;8.07;;;;;;;10.20;75.88;99709.63;6190563;23;20260;-86
2022/11/15 01:04:42;;;;;;;23.03;8.83;;;;;;;10.23;75.61;99710.38;6190486;23;20505;-86
2022/11/15 01:07:08;;;;;;;15.47;8.00;;;;;;;10.28;75.97;99711.03;6217051;23;20201;-86
2022/11/15 01:09:35;;;;;;;16.63;7.27;;;;;;;10.29;75.90;99712.72;6216728;23;20149;-86
2022/11/15 01:12:01;;;;;;;17.80;7.43;;;;;;;10.28;76.06;99703.16;6190403;23;20185;-86
2022/11/15 01:14:28;;;;;;;17.10;7.43;;;;;;;10.35;75.92;99701.16;6217230;23;20157;-86
2022/11/15 01:16:54;;;;;;;21.17;9.53;;;;;;;10.47;76.11;99703.22;6216789;23;20187;-86
2022/11/15 01:19:21;;;;;;;18.73;8.87;;;;;;;10.47;76.07;99698.84;6216614;23;20173;-86
2022/11/15 01:21:51;;;;;;;18.73;7.87;;;;;;;10.47;75.71;99698.00;6190350;23;20541;-86
2022/11/15 01:24:18;;;;;;;19.60;8.83;;;;;;;10.53;75.71;99702.13;6190306;23;20480;-86
2022/11/15 01:26:44;;;;;;;20.53;8.47;;;;;;;10.56;75.38;99694.13;6216590;23;20157;-86
2022/11/15 01:29:11;;;;;;;23.00;9.07;;;;;;;10.54;75.55;99695.94;6190341;23;20548;-86
2022/11/15 01:31:38;;;;;;;20.53;9.23;;;;;;;10.55;75.61;99705.50;6216495;23;20224;-86
2022/11/15 01:34:04;;;;;;;20.20;9.03;;;;;;;10.60;75.37;99703.53;6217011;23;20225;-86
2022/11/15 01:36:30;;;;;;;21.17;9.43;;;;;;;10.65;74.92;99686.69;6189967;23;20656;-86
2022/11/15 01:39:00;;;;;;;24.10;9.00;;;;;;;10.69;75.00;99692.66;6216214;23;20161;-86
2022/11/15 01:41:30;;;;;;;19.23;9.37;;;;;;;10.73;75.22;99696.84;6190400;23;20165;-86
2022/11/15 01:44:30;;;;;;;38.83;11.80;;;;;;;10.75;74.87;99698.47;6216115;23;20161;-86
2022/11/15 01:46:59;;;;;;;32.57;11.93;;;;;;;10.79;74.58;99696.59;6185425;23;20655;-87
2022/11/15 01:49:29;;;;;;;27.43;12.23;;;;;;;10.82;74.57;99691.22;6189885;23;20158;-87
2022/11/15 01:52:00;;;;;;;30.70;12.50;;;;;;;10.84;74.19;99686.75;6190230;23;20153;-86
2022/11/15 01:54:27;;;;;;;30.07;11.70;;;;;;;10.85;74.43;99683.16;6189886;23;20483;-86
2022/11/15 01:57:10;;;;;;;31.23;13.93;;;;;;;10.85;73.98;99683.16;6190065;23;20182;-86
2022/11/15 01:59:43;;;;;;;31.10;13.63;;;;;;;10.88;73.94;99683.03;6190959;23;20146;-86
2022/11/15 02:02:09;;;;;;;24.50;12.23;;;;;;;10.91;73.71;99685.53;6190259;23;20150;-86
2022/11/15 02:04:45;;;;;;;25.83;10.53;;;;;;;10.87;73.90;99679.59;6190191;23;20162;-86
2022/11/15 02:07:16;;;;;;;30.93;12.67;;;;;;;10.88;73.50;99673.41;6216474;23;20554;-86
2022/11/15 02:09:44;;;;;;;24.53;10.80;;;;;;;10.86;73.67;99683.13;6216414;23;20585;-86
2022/11/15 02:12:15;;;;;;;36.27;13.27;;;;;;;10.83;73.77;99685.03;6190071;23;20212;-86
2022/11/15 02:14:42;;;;;;;26.83;11.10;;;;;;;10.82;73.71;99683.34;6216671;23;20149;-86
2022/11/15 02:17:45;;;;;;;34.07;11.90;;;;;;;10.79;73.80;99678.22;6215901;23;20170;-86
2022/11/15 02:20:32;;;;;;;44.63;11.53;;;;;;;10.80;73.86;99679.91;6189597;23;20486;-86
2022/11/15 02:23:19;;;;;;;36.47;12.90;;;;;;;10.82;74.00;99678.09;6215859;23;20141;-86
2022/11/15 02:26:07;;;;;;;24.73;10.27;;;;;;;10.81;74.03;99668.50;6190669;23;20181;-86
2022/11/15 02:29:13;;;;;;;25.63;11.53;;;;;;;10.86;74.07;99663.91;6190617;23;20153;-86
2022/11/15 02:32:06;;;;;;;27.47;10.47;;;;;;;10.87;74.06;99665.63;6189555;23;20199;-86
2022/11/15 02:35:04;;;;;;;18.50;9.17;;;;;;;10.88;74.07;99668.16;6216176;23;20138;-86
2022/11/15 02:37:53;;;;;;;34.87;10.63;;;;;;;10.89;74.02;99679.50;6189507;23;20190;-86
2022/11/15 02:40:39;;;;;;;28.33;12.67;;;;;;;10.90;73.78;99674.19;6189561;23;20201;-86
2022/11/15 02:46:13;;;;;;;30.37;11.00;;;;;;;10.89;73.81;99666.41;6216110;23;20145;-86
2022/11/15 02:48:43;;;;;;;27.20;10.93;;;;;;;10.91;74.03;99672.41;6216029;23;20531;-87
2022/11/15 02:51:10;;;;;;;35.17;13.23;;;;;;;10.94;73.84;99667.03;6189339;23;20157;-86
2022/11/15 02:53:36;;;;;;;36.20;10.67;;;;;;;10.96;73.77;99670.44;6189326;23;20187;-86
2022/11/15 02:56:02;;;;;;;22.10;10.70;;;;;;;10.96;73.47;99665.19;6189141;23;20273;-86
2022/11/15 02:58:45;;;;;;;25.73;10.53;;;;;;;10.94;73.35;99664.41;6190615;23;20154;-86
2022/11/15 03:01:33;;;;;;;20.80;9.40;;;;;;;10.92;73.63;99671.50;6189833;23;20574;-86
2022/11/15 03:04:21;;;;;;;26.70;9.63;;;;;;;10.91;73.37;99661.94;6216014;23;20162;-86
2022/11/15 03:07:06;;;;;;;28.77;11.00;;;;;;;10.87;73.28;99660.38;6214297;23;20153;-86
2022/11/15 03:09:38;;;;;;;22.80;9.80;;;;;;;10.83;73.64;99661.41;6215834;23;20151;-87
2022/11/15 03:12:22;;;;;;;24.20;9.77;;;;;;;10.85;74.08;99662.19;6215777;23;20135;-86
2022/11/15 03:15:01;;;;;;;32.30;10.13;;;;;;;10.85;73.81;99659.56;6215812;23;20162;-86
2022/11/15 03:17:30;;;;;;;18.57;8.40;;;;;;;10.87;73.84;99660.38;6215127;23;20204;-86
2022/11/15 03:20:01;;;;;;;20.90;9.53;;;;;;;10.91;73.83;99659.31;6215427;23;20499;-86
2022/11/15 03:22:30;;;;;;;20.20;8.83;;;;;;;10.96;73.68;99659.94;6189222;23;20173;-86
2022/11/15 03:25:01;;;;;;;15.03;8.27;;;;;;;10.98;73.51;99655.47;6216079;23;20564;-86
2022/11/15 03:27:34;;;;;;;20.97;8.43;;;;;;;10.99;73.30;99655.41;6189098;23;20138;-86
2022/11/15 03:30:05;;;;;;;18.13;8.90;;;;;;;11.01;73.16;99648.31;6215739;23;20462;-86
2022/11/15 03:32:36;;;;;;;21.30;9.50;;;;;;;11.06;73.26;99650.72;6189026;23;20162;-86
2022/11/15 03:35:08;;;;;;;20.37;8.73;;;;;;;11.08;73.24;99656.78;6216128;23;20157;-86
2022/11/15 03:37:40;;;;;;;23.70;9.80;;;;;;;11.06;73.14;99651.56;6176767;23;20203;-86
2022/11/15 03:40:08;;;;;;;18.40;8.83;;;;;;;11.02;73.08;99646.56;6155485;23;20226;-86
2022/11/15 03:43:03;;;;;;;21.80;9.27;;;;;;;11.02;73.19;99649.19;6154661;23;20229;-87
2022/11/15 03:45:50;;;;;;;22.93;9.17;;;;;;;11.03;73.22;99646.47;6154994;23;20178;-87
2022/11/15 03:48:25;;;;;;;18.87;7.50;;;;;;;11.03;73.36;99645.66;6156201;23;20143;-87
2022/11/15 03:50:52;;;;;;;15.13;7.77;;;;;;;11.04;73.30;99642.94;6154323;23;20154;-87
2022/11/15 03:53:19;;;;;;;42.13;10.07;;;;;;;11.01;73.00;99636.97;6154238;23;20166;-87
2022/11/15 03:55:45;;;;;;;20.60;9.53;;;;;;;10.99;73.32;99642.31;6155090;23;20202;-87
2022/11/15 03:58:12;;;;;;;27.43;9.27;;;;;;;10.99;73.30;99633.56;6154583;23;20220;-87
2022/11/15 04:00:39;;;;;;;26.10;9.83;;;;;;;11.02;73.39;99639.53;6155204;23;20200;-87
2022/11/15 04:03:05;;;;;;;21.90;9.37;;;;;;;11.10;73.66;99637.41;6154737;23;20424;-87
2022/11/15 04:05:32;;;;;;;22.10;8.67;;;;;;;11.16;73.46;99635.44;6154202;23;20163;-87
2022/11/15 04:07:57;;;;;;;22.17;9.20;;;;;;;11.18;73.21;99634.44;6178903;23;20566;-87
2022/11/15 04:10:23;;;;;;;26.73;12.10;;;;;;;11.22;73.22;99630.72;6155655;23;20183;-87
2022/11/15 04:12:49;;;;;;;30.60;13.20;;;;;;;11.26;73.08;99634.91;6154529;23;20155;-87
2022/11/15 04:15:20;;;;;;;26.30;12.00;;;;;;;11.26;72.86;99631.44;6155339;23;20283;-87
2022/11/15 04:17:52;;;;;;;27.87;12.97;;;;;;;11.31;72.73;99626.81;6155223;23;20179;-87
2022/11/15 04:26:11;;;;;;;27.70;12.67;;;;;;;11.33;73.02;99612.69;6155517;23;20146;-87
2022/11/15 04:29:33;;;;;;;24.83;11.33;;;;;;;11.39;73.09;99617.66;6155743;23;20147;-87
2022/11/15 04:31:24;;;;;;;22.07;10.80;;;;;;;11.46;72.83;99619.06;6156938;23;20171;-87
2022/11/15 04:33:50;;;;;;;15.53;8.37;;;;;;;11.45;72.81;99617.34;6131298;23;20163;-87
2022/11/15 04:39:00;;;;;;;19.93;9.20;;;;;;;11.47;72.90;99615.53;6206301;23;20579;-86
2022/11/15 04:41:26;;;;;;;15.13;8.47;;;;;;;11.49;72.40;99620.69;6190981;23;20150;-86
2022/11/15 04:43:52;;;;;;;19.37;8.93;;;;;;;11.53;72.50;99619.63;6217207;23;20207;-86
2022/11/15 04:46:19;;;;;;;18.27;9.23;;;;;;;11.51;72.47;99622.31;6217242;23;20606;-87
2022/11/15 04:48:44;;;;;;;19.10;8.97;;;;;;;11.56;72.57;99620.31;6190516;23;20185;-86
2022/11/15 04:51:10;;;;;;;21.13;8.27;;;;;;;11.59;72.54;99620.16;6190534;23;20233;-87
2022/11/15 04:53:37;;;;;;;18.97;9.33;;;;;;;11.58;72.53;99613.19;6190876;23;20158;-87
2022/11/15 04:56:04;;;;;;;17.83;9.17;;;;;;;11.58;72.36;99620.25;6190405;23;20190;-87
2022/11/15 04:58:31;;;;;;;19.77;8.87;;;;;;;11.60;72.40;99621.88;6190958;23;20162;-87
2022/11/15 05:00:58;;;;;;;13.83;7.40;;;;;;;11.60;72.68;99611.38;6190648;23;20166;-87
2022/11/15 05:06:10;;;;;;;12.47;7.70;;;;;;;11.60;72.74;99611.38;6217205;23;20152;-87
2022/11/15 05:08:36;;;;;;;13.23;7.63;;;;;;;11.56;72.45;99609.81;6216880;23;20157;-87
2022/11/15 05:11:03;;;;;;;14.57;8.07;;;;;;;11.55;72.61;99613.38;6190529;23;20165;-87
2022/11/15 05:13:30;;;;;;;15.87;8.77;;;;;;;11.57;72.46;99608.91;6216745;23;20156;-87
2022/11/15 05:15:56;;;;;;;18.47;8.57;;;;;;;11.60;72.58;99602.63;6190413;23;20272;-87
2022/11/15 05:18:23;;;;;;;15.27;7.50;;;;;;;11.63;72.67;99611.19;6217380;23;20176;-87
2022/11/15 05:20:49;;;;;;;17.90;7.33;;;;;;;11.65;72.91;99614.63;6215415;23;20184;-86
2022/11/15 05:23:14;;;;;;;17.00;7.70;;;;;;;11.67;72.62;99611.91;6217659;23;20145;-86
2022/11/15 05:25:41;;;;;;;18.10;8.50;;;;;;;11.68;72.76;99608.38;6190399;23;20163;-87
2022/11/15 05:28:08;;;;;;;16.57;7.57;;;;;;;11.69;72.42;99610.94;6191695;23;20312;-87
2022/11/15 05:30:33;;;;;;;19.50;9.70;;;;;;;11.71;72.22;99614.31;6217215;23;20150;-87
2022/11/15 05:33:00;;;;;;;17.40;9.40;;;;;;;11.77;72.04;99615.81;6215715;23;20307;-87
2022/11/15 05:35:41;;;;;;;16.60;7.67;;;;;;;11.79;71.91;99611.34;6217586;23;20147;-87
2022/11/15 05:38:08;;;;;;;25.50;9.33;;;;;;;11.81;72.13;99619.13;6190871;23;20288;-87
2022/11/15 05:40:35;;;;;;;17.27;7.80;;;;;;;11.85;71.79;99625.94;6217071;23;20187;-87
2022/11/15 05:43:04;;;;;;;23.10;9.90;;;;;;;11.85;71.55;99625.94;6189765;23;20448;-86
2022/11/15 05:45:33;;;;;;;16.20;8.20;;;;;;;11.86;72.11;99627.63;6190170;23;20214;-87
2022/11/15 05:48:01;;;;;;;18.60;8.50;;;;;;;11.83;71.96;99623.38;6190622;23;20160;-87
2022/11/15 05:50:28;;;;;;;17.10;8.07;;;;;;;11.81;72.21;99625.25;6216300;23;20156;-87
2022/11/15 05:52:55;;;;;;;19.50;9.13;;;;;;;11.85;72.11;99621.53;6190521;23;20163;-87
2022/11/15 05:55:21;;;;;;;31.70;11.77;;;;;;;11.90;72.35;99630.03;6217284;23;20158;-87
2022/11/15 05:57:46;;;;;;;30.37;14.60;;;;;;;11.91;72.44;99636.13;6216021;23;20191;-87
2022/11/15 06:00:13;;;;;;;29.50;15.00;;;;;;;11.94;72.04;99630.72;6190747;23;20567;-87
2022/11/15 06:02:39;;;;;;;27.57;13.60;;;;;;;11.94;72.04;99636.00;6216939;23;20155;-87
2022/11/15 06:05:06;;;;;;;32.13;14.33;;;;;;;11.95;72.52;99632.44;6190336;23;20200;-87
2022/11/15 06:07:31;;;;;;;35.77;14.60;;;;;;;11.96;72.40;99634.13;6215440;23;20664;-87
2022/11/15 06:09:58;;;;;;;28.00;16.13;;;;;;;11.99;72.64;99634.84;6190373;23;20158;-87
2022/11/15 06:12:25;;;;;;;48.20;18.53;;;;;;;12.01;72.49;99637.38;6190415;23;20202;-87
2022/11/15 06:14:51;;;;;;;40.53;17.27;;;;;;;12.02;72.40;99644.34;6191311;23;20554;-87
2022/11/15 06:17:17;;;;;;;36.13;16.67;;;;;;;12.03;72.31;99646.88;6216104;23;20174;-87
2022/11/15 06:19:44;;;;;;;39.70;17.30;;;;;;;12.04;72.92;99647.72;6215305;23;20166;-87
2022/11/15 06:22:10;;;;;;;38.00;16.70;;;;;;;12.06;72.63;99640.63;6189825;23;20186;-87
2022/11/15 06:24:37;;;;;;;42.90;19.50;;;;;;;12.08;72.51;99649.28;6189779;23;20163;-87
2022/11/15 06:27:04;;;;;;;49.50;20.57;;;;;;;12.13;72.73;99642.84;6216386;23;20147;-87
2022/11/15 06:29:31;;;;;;;58.73;21.27;;;;;;;12.19;72.95;99645.19;6189726;23;20557;-87
2022/11/15 06:31:57;;;;;;;36.07;16.03;;;;;;;12.21;73.16;99643.31;6215967;23;20146;-87
2022/11/15 06:34:23;;;;;;;72.50;29.27;;;;;;;12.24;73.09;99640.53;6216298;23;20164;-87
2022/11/15 06:36:48;;;;;;;80.23;28.40;;;;;;;12.18;73.17;99645.25;6215834;23;20175;-87
2022/11/15 06:39:13;;;;;;;108.10;43.53;;;;;;;12.22;72.96;99649.41;6215918;23;20292;-87
2022/11/15 06:41:40;;;;;;;56.90;25.50;;;;;;;12.22;73.31;99645.03;6216217;23;20158;-87
2022/11/15 06:44:06;;;;;;;50.63;22.10;;;;;;;12.30;73.29;99639.38;6216469;23;20586;-87
2022/11/15 06:46:31;;;;;;;39.40;17.97;;;;;;;12.35;73.33;99632.09;6215844;23;20155;-87
2022/11/15 06:48:58;;;;;;;50.30;25.00;;;;;;;12.41;73.55;99634.41;6189625;23;20162;-87
2022/11/15 06:51:24;;;;;;;45.80;19.87;;;;;;;12.42;73.49;99628.19;6216045;23;20172;-87
2022/11/15 06:53:51;;;;;;;50.43;21.13;;;;;;;12.47;73.51;99631.47;6216370;23;20147;-87
2022/11/15 06:56:18;;;;;;;49.27;19.57;;;;;;;12.52;73.87;99632.09;6215656;23;20184;-87
2022/11/15 06:58:45;;;;;;;45.30;18.50;;;;;;;12.54;73.51;99632.84;6216012;23;20162;-87
2022/11/15 07:01:12;;;;;;;47.43;16.40;;;;;;;12.65;74.09;99630.50;6215987;23;20150;-87
2022/11/15 07:03:41;;;;;;;56.03;17.43;;;;;;;12.68;73.60;99630.31;6189743;23;20160;-87
2022/11/15 07:06:08;;;;;;;42.47;16.47;;;;;;;12.77;73.94;99624.56;6215635;23;20182;-88
2022/11/15 07:08:34;;;;;;;36.57;14.60;;;;;;;12.82;74.05;99622.53;6215557;23;20155;-87
2022/11/15 07:11:04;;;;;;;41.97;15.23;;;;;;;12.84;74.17;99620.66;6215548;23;20521;-87
2022/11/15 07:13:34;;;;;;;39.07;14.40;;;;;;;12.87;74.71;99619.66;6215794;23;20155;-87
2022/11/15 07:16:08;;;;;;;34.10;12.00;;;;;;;13.01;74.10;99616.28;6189057;23;20513;-87
2022/11/15 07:18:35;;;;;;;37.23;13.97;;;;;;;13.04;73.63;99619.59;6216099;23;20229;-88
2022/11/15 07:21:04;;;;;;;33.83;12.97;;;;;;;13.09;73.82;99614.13;6215690;23;20162;-88
2022/11/15 07:23:31;;;;;;;32.33;12.60;;;;;;;13.12;73.90;99616.59;6215225;23;20604;-88
2022/11/15 07:25:59;;;;;;;42.47;13.87;;;;;;;13.10;73.90;99621.09;6213813;23;20219;-87
2022/11/15 07:28:26;;;;;;;36.20;12.50;;;;;;;13.06;74.52;99614.25;6214366;23;20147;-88
2022/11/15 07:30:51;;;;;;;31.77;12.73;;;;;;;13.14;74.05;99617.34;6214960;23;20151;-88
2022/11/15 07:33:17;;;;;;;33.23;11.47;;;;;;;13.11;74.21;99621.00;6214698;23;20173;-88
2022/11/15 07:35:42;;;;;;;32.27;12.83;;;;;;;13.12;73.70;99616.59;6214861;23;20157;-88
2022/11/15 07:38:08;;;;;;;35.77;12.77;;;;;;;13.16;73.71;99615.47;6215040;23;20172;-88
2022/11/15 07:40:34;;;;;;;35.23;11.17;;;;;;;13.21;73.78;99618.69;6214846;23;20180;-87
2022/11/15 07:43:04;;;;;;;35.97;13.43;;;;;;;13.26;73.64;99616.69;6215055;23;20636;-88
2022/11/15 07:45:30;;;;;;;36.57;12.70;;;;;;;13.30;73.11;99618.19;6215133;23;20135;-88
2022/11/15 07:47:57;;;;;;;33.43;13.00;;;;;;;13.34;72.64;99620.56;6214890;23;20184;-88
2022/11/15 07:50:24;;;;;;;28.90;12.70;;;;;;;13.31;73.07;99620.72;6215797;23;20212;-88
2022/11/15 07:52:59;;;;;;;31.77;10.77;;;;;;;13.35;73.14;99624.03;6215517;23;20152;-87
2022/11/15 07:55:27;;;;;;;37.70;14.37;;;;;;;13.41;72.97;99626.34;6214738;23;20208;-88
2022/11/15 07:57:53;;;;;;;29.33;12.60;;;;;;;13.44;72.54;99634.06;6214652;23;20258;-88
2022/11/15 08:00:19;;;;;;;38.93;13.90;;;;;;;13.44;72.87;99626.19;6214744;23;20187;-88
2022/11/15 08:02:45;;;;;;;39.97;15.27;;;;;;;13.44;72.96;99624.38;6215292;23;20194;-87
2022/11/15 08:05:11;;;;;;;42.60;14.77;;;;;;;13.48;72.54;99627.69;6216920;23;20160;-87
2022/11/15 08:07:37;;;;;;;38.67;15.33;;;;;;;13.55;72.50;99629.03;6216957;23;20149;-87
2022/11/15 08:10:05;;;;;;;35.97;13.20;;;;;;;13.61;72.71;99626.06;6216892;23;20207;-87
2022/11/15 08:12:32;;;;;;;39.83;15.67;;;;;;;13.65;72.06;99624.09;6216875;23;20149;-87
2022/11/15 08:14:59;;;;;;;41.03;15.63;;;;;;;13.65;72.21;99624.09;6217012;23;20159;-87
2022/11/15 08:17:25;;;;;;;37.37;14.57;;;;;;;13.71;72.51;99623.72;6217659;23;20182;-87
2022/11/15 08:19:52;;;;;;;42.97;14.80;;;;;;;13.78;72.74;99623.31;6217002;23;20160;-87
2022/11/15 08:22:19;;;;;;;35.73;14.77;;;;;;;13.84;72.92;99622.09;6216883;23;20148;-87
2022/11/15 08:24:46;;;;;;;38.00;15.53;;;;;;;13.93;72.40;99630.31;6217221;23;20187;-87
2022/11/15 08:27:16;;;;;;;40.23;15.30;;;;;;;13.90;72.09;99625.22;6217677;23;20232;-87
2022/11/15 08:29:44;;;;;;;39.90;13.87;;;;;;;13.93;72.12;99616.28;6190717;23;20525;-87
2022/11/15 08:32:11;;;;;;;37.63;14.33;;;;;;;14.00;71.96;99605.28;6217137;23;20152;-87
2022/11/15 08:34:38;;;;;;;32.83;13.77;;;;;;;13.91;72.70;99616.41;6190709;23;20169;-88
2022/11/15 08:37:05;;;;;;;38.37;16.10;;;;;;;13.99;72.12;99618.56;6216774;23;20202;-87
2022/11/15 08:39:31;;;;;;;43.50;16.23;;;;;;;13.92;72.37;99612.81;6216416;23;20165;-87
2022/11/15 08:41:57;;;;;;;41.30;15.70;;;;;;;14.01;72.05;99609.63;6216445;23;20174;-87
2022/11/15 08:44:23;;;;;;;38.87;15.00;;;;;;;14.00;71.63;99605.28;6216513;23;20488;-87
2022/11/15 08:46:49;;;;;;;41.27;15.17;;;;;;;14.08;71.50;99607.47;6190383;23;20156;-87
2022/11/15 08:49:15;;;;;;;34.97;15.63;;;;;;;14.15;71.44;99604.38;6190315;23;20169;-87
2022/11/15 08:51:42;;;;;;;35.50;16.07;;;;;;;14.26;72.05;99600.25;6216518;23;20475;-87
2022/11/15 08:54:08;;;;;;;36.67;14.80;;;;;;;14.28;72.16;99593.94;6190232;23;20272;-87
2022/11/15 08:56:34;;;;;;;42.40;16.13;;;;;;;14.38;71.99;99594.28;6189771;23;20605;-87
2022/11/15 08:59:00;;;;;;;38.87;13.53;;;;;;;14.46;71.09;99597.31;6216591;23;20180;-87
2022/11/15 09:01:25;;;;;;;34.70;13.97;;;;;;;14.50;70.74;99589.09;6190088;23;20227;-87
2022/11/15 09:03:51;;;;;;;44.30;14.73;;;;;;;14.51;70.64;99582.91;6216432;23;20145;-87
2022/11/15 09:06:16;;;;;;;35.57;14.03;;;;;;;14.58;70.79;99583.34;6216372;23;20146;-87
2022/11/15 09:08:42;;;;;;;38.17;14.60;;;;;;;14.59;70.48;99580.63;6216303;23;20196;-87
2022/11/15 09:11:09;;;;;;;31.23;14.07;;;;;;;14.55;70.76;99580.91;6216517;23;20145;-87
2022/11/15 09:13:36;;;;;;;34.07;14.90;;;;;;;14.59;70.38;99571.88;6216404;23;20173;-88
2022/11/15 09:16:03;;;;;;;37.37;14.10;;;;;;;14.70;69.00;99572.06;6215855;23;20578;-87
2022/11/15 09:18:29;;;;;;;35.90;13.37;;;;;;;14.74;68.84;99561.22;6216292;23;20181;-88
2022/11/15 09:20:59;;;;;;;43.43;14.87;;;;;;;14.76;68.99;99559.31;6216351;23;20146;-87
2022/11/15 09:23:26;;;;;;;39.33;14.30;;;;;;;14.74;69.58;99560.34;6216340;23;20145;-87
2022/11/15 09:25:57;;;;;;;36.67;14.50;;;;;;;14.66;69.82;99552.06;6216274;23;20149;-87
2022/11/15 09:28:22;;;;;;;30.90;13.20;;;;;;;14.59;69.72;99553.41;6216380;23;20142;-87
2022/11/15 09:30:49;;;;;;;32.07;13.13;;;;;;;14.65;69.95;99545.06;6216307;23;20494;-87
2022/11/15 09:33:16;;;;;;;34.20;13.57;;;;;;;14.81;68.66;99537.91;6217010;23;20146;-88
2022/11/15 09:35:43;;;;;;;31.87;12.03;;;;;;;14.88;69.08;99536.59;6215094;23;20188;-87
2022/11/15 09:38:10;;;;;;;35.07;12.57;;;;;;;14.95;69.18;99531.75;6189333;23;20201;-88
2022/11/15 09:40:37;;;;;;;35.13;13.30;;;;;;;14.98;69.18;99528.91;6215968;23;20208;-87
2022/11/15 09:43:41;;;;;;;35.03;13.63;;;;;;;15.09;68.09;99524.66;6215826;23;20203;-88
2022/11/15 09:46:44;;;;;;;27.13;12.37;;;;;;;15.11;68.28;99528.03;6216130;23;20137;-87
2022/11/15 09:49:15;;;;;;;27.20;12.03;;;;;;;15.12;68.30;99519.16;6189713;23;20185;-87
2022/11/15 09:51:49;;;;;;;25.60;11.63;;;;;;;15.05;68.63;99514.38;6216035;23;20145;-88
2022/11/15 09:54:38;;;;;;;32.93;12.03;;;;;;;15.10;68.14;99505.19;6216193;23;20479;-87
2022/11/15 09:57:20;;;;;;;26.80;11.87;;;;;;;15.20;68.08;99501.00;6216175;23;20175;-88
2022/11/15 09:59:55;;;;;;;26.37;12.53;;;;;;;15.30;68.18;99496.81;6216190;23;20215;-87
2022/11/15 10:02:39;;;;;;;29.23;12.83;;;;;;;15.44;67.46;99487.13;6189770;23;20239;-88
2022/11/15 10:05:12;;;;;;;31.93;12.43;;;;;;;15.59;66.94;99483.50;6216141;23;20130;-88
2022/11/15 10:08:03;;;;;;;32.83;13.27;;;;;;;15.71;66.13;99480.88;6216374;23;20133;-88
2022/11/15 10:10:49;;;;;;;37.97;13.30;;;;;;;15.82;65.81;99477.50;6189685;23;20227;-88
2022/11/15 10:13:34;;;;;;;29.10;12.80;;;;;;;15.93;65.38;99481.09;6216041;23;20129;-87
2022/11/15 10:16:28;;;;;;;28.87;13.20;;;;;;;16.10;64.91;99482.56;6216389;23;20137;-87
2022/11/15 10:19:06;;;;;;;33.70;13.93;;;;;;;16.21;64.02;99472.09;6177212;23;20164;-88
2022/11/15 10:21:58;;;;;;;24.67;11.83;;;;;;;16.28;63.29;99465.41;6216454;23;20608;-88
2022/11/15 10:24:30;;;;;;;24.57;11.67;;;;;;;16.32;63.53;99458.97;6216429;23;20231;-88
2022/11/15 10:26:57;;;;;;;26.70;12.77;;;;;;;16.48;63.39;99456.06;6215804;23;20129;-88
2022/11/15 10:29:25;;;;;;;27.03;13.07;;;;;;;16.53;62.01;99454.78;6216281;23;20163;-88
2022/11/15 10:31:51;;;;;;;30.73;13.57;;;;;;;16.67;61.55;99466.19;6189696;23;20181;-88
2022/11/15 10:34:26;;;;;;;29.27;12.93;;;;;;;16.78;61.70;99451.22;6216174;23;20570;-88
2022/11/15 10:37:01;;;;;;;23.40;11.07;;;;;;;16.91;60.37;99445.88;6216583;23;20200;-88
2022/11/15 10:39:28;;;;;;;32.60;13.07;;;;;;;16.80;59.56;99445.81;6215831;23;20169;-88
2022/11/15 10:41:56;;;;;;;28.70;12.30;;;;;;;16.76;59.56;99450.50;6216162;23;20153;-88
2022/11/15 10:44:29;;;;;;;28.53;12.53;;;;;;;16.53;59.76;99440.75;6215838;23;20155;-88
2022/11/15 10:46:55;;;;;;;25.53;13.17;;;;;;;16.67;59.50;99442.38;6189568;23;20502;-88
2022/11/15 12:06:47;;;;;;;28.37;12.80;;;;;;;15.68;58.61;99348.94;5111204;27;20548;-89
2022/11/15 12:09:50;;;;;;;28.77;11.80;;;;;;;15.91;58.00;99344.69;5110162;28;20583;-91
2022/11/15 12:12:52;;;;;;;25.90;12.37;;;;;;;16.11;57.03;99344.13;5110992;28;20178;-90
2022/11/15 12:15:25;;;;;;;25.63;12.53;;;;;;;16.23;55.90;99335.28;5110705;28;20260;-90
2022/11/15 12:17:51;;;;;;;27.97;13.10;;;;;;;16.40;55.53;99332.25;5109699;28;20180;-91
2022/11/15 12:20:18;;;;;;;26.27;13.13;;;;;;;16.50;55.18;99332.44;5109643;28;20225;-90
2022/11/15 12:23:12;;;;;;;20.53;11.13;;;;;;;16.65;54.59;99330.47;5111087;28;20179;-90
2022/11/15 12:25:49;;;;;;;27.70;12.60;;;;;;;16.64;54.67;99329.63;5109608;28;20538;-91
2022/11/15 12:28:24;;;;;;;27.30;11.90;;;;;;;16.67;54.74;99328.56;5109567;28;20172;-90
2022/11/15 12:30:54;;;;;;;34.00;13.23;;;;;;;16.39;55.32;99324.44;5110747;28;20198;-90
2022/11/15 12:33:43;;;;;;;21.50;10.23;;;;;;;16.53;54.84;99321.66;5109549;28;20606;-90
2022/11/15 12:36:20;;;;;;;21.43;12.47;;;;;;;16.61;54.12;99315.78;5109824;28;20222;-91
2022/11/15 12:39:00;;;;;;;25.23;10.60;;;;;;;16.68;53.29;99314.38;5110358;28;20295;-90
2022/11/15 12:41:31;;;;;;;21.23;10.57;;;;;;;16.27;54.33;99310.28;5109332;28;20217;-89
2022/11/15 12:43:58;;;;;;;21.90;10.20;;;;;;;16.29;54.61;99307.56;5110517;28;20662;-89
2022/11/15 12:46:30;;;;;;;24.23;10.73;;;;;;;16.26;54.39;99308.63;5110593;28;20183;-89
2022/11/15 12:49:09;;;;;;;21.03;11.13;;;;;;;16.22;54.35;99307.13;5109229;28;20511;-90
2022/11/15 12:51:43;;;;;;;26.50;11.20;;;;;;;16.37;53.84;99294.59;5110140;28;20262;-90
2022/11/15 12:54:21;;;;;;;18.90;10.37;;;;;;;16.47;53.06;99298.25;5108974;28;20573;-90
2022/11/15 12:57:06;;;;;;;21.97;11.00;;;;;;;16.21;53.47;99294.88;5110616;28;20180;-91
2022/11/15 12:59:55;;;;;;;20.07;10.30;;;;;;;16.11;53.89;99283.28;5109901;28;20206;-91
2022/11/15 13:02:26;;;;;;;28.30;10.77;;;;;;;15.99;53.62;99294.75;5110398;28;20207;-90
2022/11/15 13:04:55;;;;;;;21.97;11.67;;;;;;;16.03;53.25;99298.88;5109882;28;20271;-91
2022/11/15 13:07:35;;;;;;;20.37;11.10;;;;;;;16.09;53.48;99289.66;5097056;28;20231;-91